createdAt,value
2023-02-24T00:17:27.913Z,99
2023-02-24T00:19:54.050Z,99
2023-02-24T00:21:06.975Z,99
2023-02-24T00:24:45.825Z,99
2023-02-24T00:25:59.218Z,99
2023-02-24T00:29:38.056Z,99
2023-02-24T00:36:56.084Z,99
2023-02-24T00:45:26.799Z,99
2023-02-24T00:58:50.279Z,99
2023-02-24T01:00:02.837Z,99
2023-02-24T01:13:25.880Z,99
2023-02-24T01:19:30.831Z,99
2023-02-24T01:21:58.005Z,99
2023-02-24T01:23:10.455Z,99
2023-02-24T01:24:22.778Z,99
2023-02-24T01:25:35.888Z,99
2023-02-24T01:32:54.192Z,99
2023-02-24T01:47:29.945Z,99
2023-02-24T02:04:32.514Z,99
2023-02-24T02:06:57.909Z,99
2023-02-24T02:19:08.015Z,99
2023-02-24T02:31:18.136Z,98
2023-02-24T02:51:58.884Z,99
2023-02-24T03:51:36.083Z,99
2023-02-24T03:56:28.248Z,99
2023-02-24T04:06:12.928Z,99
2023-02-24T04:13:29.990Z,99
2023-02-24T04:28:06.147Z,99
2023-02-24T04:32:58.272Z,99
2023-02-24T04:40:15.893Z,99
2023-02-24T04:43:55.428Z,99
2023-02-24T04:45:08.404Z,99
2023-02-24T04:49:59.984Z,99
2023-02-24T04:54:52.000Z,99
2023-02-24T05:13:07.838Z,99
2023-02-24T05:14:20.278Z,99
2023-02-24T06:16:22.582Z,99
2023-02-24T06:26:07.452Z,99
2023-02-24T07:13:34.125Z,98
2023-02-24T07:31:49.589Z,97
2023-02-24T07:42:46.165Z,96
2023-02-24T07:59:48.605Z,95
2023-02-24T08:10:45.484Z,92
2023-02-24T08:11:58.345Z,92
2023-02-24T08:19:16.008Z,91
2023-02-24T08:25:21.680Z,92
2023-02-24T08:32:39.841Z,92
2023-02-24T08:50:54.407Z,92
2023-02-24T08:56:59.834Z,92
2023-02-24T09:27:24.412Z,87
2023-02-24T10:14:52.059Z,84
2023-02-24T10:24:35.305Z,84
2023-02-24T10:25:48.179Z,83
2023-02-24T10:29:27.182Z,84
2023-02-24T11:04:44.309Z,84
2023-02-24T11:05:57.390Z,85
2023-02-24T11:12:02.486Z,86
2023-02-24T11:18:07.648Z,87
2023-02-24T11:19:20.464Z,87
2023-02-24T11:20:48.291Z,87
2023-02-24T11:21:46.487Z,88
2023-02-24T11:22:59.395Z,88
2023-02-24T11:27:50.875Z,91
2023-02-24T11:29:04.308Z,92
2023-02-24T11:30:18.113Z,93
2023-02-24T11:31:30.439Z,93
2023-02-24T11:32:43.468Z,94
2023-02-24T11:33:56.439Z,94
2023-02-24T11:35:09.573Z,95
2023-02-24T11:36:22.450Z,95
2023-02-24T11:37:35.489Z,95
2023-02-24T11:38:48.434Z,95
2023-02-24T11:40:01.728Z,95
2023-02-24T11:41:14.307Z,95
2023-02-24T11:42:27.463Z,95
2023-02-24T11:43:40.506Z,95
2023-02-24T11:44:53.566Z,95
2023-02-24T11:46:06.501Z,96
2023-02-24T11:47:19.461Z,96
2023-02-24T11:48:32.795Z,97
2023-02-24T11:49:45.519Z,97
2023-02-24T11:50:58.327Z,97
2023-02-24T11:52:11.516Z,97
2023-02-24T11:53:24.467Z,97
2023-02-24T11:54:37.464Z,99
2023-02-24T11:55:50.623Z,99
2023-02-24T11:57:03.475Z,99
2023-02-24T11:58:16.472Z,98
2023-02-24T11:59:29.482Z,98
2023-02-24T12:00:42.504Z,98
2023-02-24T12:01:55.486Z,99
2023-02-24T12:03:08.579Z,99
2023-02-24T12:04:21.556Z,99
2023-02-24T12:05:34.511Z,99
2023-02-24T12:06:47.506Z,99
2023-02-24T12:08:00.344Z,99
2023-02-24T12:09:13.463Z,99
2023-02-24T12:10:26.454Z,99
2023-02-24T12:11:39.478Z,99
2023-02-24T12:12:52.437Z,99
2023-02-24T12:14:05.549Z,99
2023-02-24T12:15:18.477Z,99
2023-02-24T12:16:31.766Z,99
2023-02-24T12:17:44.501Z,99
2023-02-24T12:18:57.451Z,99
2023-02-24T12:20:10.361Z,99
2023-02-24T12:21:23.874Z,99
2023-02-24T12:22:36.543Z,99
2023-02-24T12:23:49.491Z,99
2023-02-24T12:25:02.522Z,99
2023-02-24T12:26:15.484Z,99
2023-02-24T12:27:28.494Z,99
2023-02-24T12:28:41.653Z,99
2023-02-24T12:29:54.180Z,99
2023-02-24T12:31:07.649Z,99
2023-02-24T12:32:20.547Z,99
2023-02-24T12:33:33.528Z,99
2023-02-24T12:34:46.485Z,99
2023-02-24T12:35:59.532Z,99
2023-02-24T12:37:12.487Z,99
2023-02-24T12:38:25.501Z,99
2023-02-24T12:39:38.644Z,99
2023-02-24T12:40:51.517Z,99
2023-02-24T12:42:04.501Z,99
2023-02-24T12:43:17.483Z,99
2023-02-24T12:44:30.500Z,99
2023-02-24T12:45:43.519Z,99
2023-02-24T12:46:56.534Z,99
2023-02-24T12:48:09.490Z,99
2023-02-24T12:49:22.493Z,99
2023-02-24T12:50:35.494Z,99
2023-02-24T12:51:48.523Z,99
2023-02-24T12:53:01.510Z,99
2023-02-24T12:54:14.495Z,99
2023-02-24T12:55:27.502Z,99
2023-02-24T12:56:40.718Z,99
2023-02-24T12:57:53.463Z,99
2023-02-24T12:59:06.547Z,99
2023-02-24T13:00:19.665Z,99
2023-02-24T13:01:32.583Z,99
2023-02-24T13:02:45.501Z,99
2023-02-24T13:03:58.492Z,99
2023-02-24T13:05:11.500Z,99
2023-02-24T13:06:24.482Z,99
2023-02-24T13:07:37.507Z,99
2023-02-24T13:08:50.533Z,99
2023-02-24T13:10:03.526Z,99
2023-02-24T13:11:17.494Z,99
2023-02-24T13:12:29.496Z,99
2023-02-24T13:13:42.534Z,99
2023-02-24T13:14:55.659Z,99
2023-02-24T13:16:08.570Z,99
2023-02-24T13:17:21.529Z,99
2023-02-24T13:18:34.525Z,99
2023-02-24T13:19:47.530Z,99
2023-02-24T13:21:00.490Z,99
2023-02-24T13:22:13.510Z,99
2023-02-24T13:23:26.519Z,99
2023-02-24T13:24:39.521Z,99
2023-02-24T13:25:52.505Z,99
2023-02-24T13:27:05.689Z,99
2023-02-24T13:28:18.525Z,99
2023-02-24T13:29:31.599Z,99
2023-02-24T13:30:44.669Z,99
2023-02-24T13:31:57.625Z,99
2023-02-24T13:33:10.536Z,99
2023-02-24T13:34:23.501Z,99
2023-02-24T13:35:36.516Z,99
2023-02-24T13:36:49.536Z,99
2023-02-24T13:38:02.433Z,99
2023-02-24T13:39:15.513Z,99
2023-02-24T13:40:28.504Z,99
2023-02-24T13:41:41.515Z,99
2023-02-24T13:42:54.496Z,99
2023-02-24T13:44:07.502Z,99
2023-02-24T13:45:20.572Z,99
2023-02-24T13:46:33.501Z,99
2023-02-24T13:47:46.589Z,99
2023-02-24T13:48:59.426Z,99
2023-02-24T13:50:12.565Z,99
2023-02-24T13:51:25.564Z,99
2023-02-24T13:52:38.681Z,99
2023-02-24T13:53:51.562Z,99
2023-02-24T13:55:03.873Z,99
2023-02-24T13:56:17.563Z,99
2023-02-24T13:57:30.545Z,99
2023-02-24T13:58:43.512Z,99
2023-02-24T13:59:59.550Z,99
2023-02-24T14:01:09.634Z,99
2023-02-24T14:02:22.593Z,99
2023-02-24T14:03:35.556Z,99
2023-02-24T14:04:48.546Z,99
2023-02-24T14:06:01.587Z,99
2023-02-24T14:07:14.552Z,99
2023-02-24T14:08:27.559Z,99
2023-02-24T14:09:40.613Z,99
2023-02-24T14:10:53.520Z,99
2023-02-24T14:12:06.724Z,99
2023-02-24T14:13:19.574Z,99
2023-02-24T14:14:32.577Z,99
2023-02-24T14:15:45.571Z,99
2023-02-24T14:16:58.575Z,99
2023-02-24T14:18:11.597Z,99
2023-02-24T14:19:24.569Z,99
2023-02-24T14:20:37.584Z,99
2023-02-24T14:21:50.586Z,99
2023-02-24T14:23:03.792Z,99
2023-02-24T14:24:16.564Z,99
2023-02-24T14:25:29.565Z,99
2023-02-24T14:26:42.569Z,99
2023-02-24T14:27:55.767Z,99
2023-02-24T14:29:08.598Z,99
2023-02-24T14:30:21.609Z,99
2023-02-24T14:31:34.709Z,99
2023-02-24T14:32:47.591Z,99
2023-02-24T14:34:00.771Z,99
2023-02-24T14:35:13.565Z,99
2023-02-24T14:36:26.603Z,99
2023-02-24T14:37:39.576Z,99
2023-02-24T14:38:52.590Z,99
2023-02-24T14:40:05.565Z,99
2023-02-24T14:41:18.461Z,99
2023-02-24T14:42:31.587Z,99
2023-02-24T14:43:44.785Z,99
2023-02-24T14:44:57.589Z,99
2023-02-24T14:46:10.647Z,99
2023-02-24T14:47:23.471Z,99
2023-02-24T14:48:36.571Z,99
2023-02-24T14:49:50.169Z,99
2023-02-24T14:51:02.559Z,99
2023-02-24T14:52:15.554Z,99
2023-02-24T14:53:28.521Z,99
2023-02-24T14:54:41.596Z,99
2023-02-24T14:55:54.589Z,99
2023-02-24T14:57:07.581Z,99
2023-02-24T14:58:20.582Z,99
2023-02-24T14:59:33.752Z,99
2023-02-24T15:00:46.580Z,99
2023-02-24T15:01:59.478Z,99
2023-02-24T15:03:12.806Z,99
2023-02-24T15:04:25.568Z,99
2023-02-24T15:05:38.420Z,99
2023-02-24T15:06:51.440Z,99
2023-02-24T15:08:04.727Z,99
2023-02-24T15:09:17.906Z,99
2023-02-24T15:10:30.576Z,99
2023-02-24T15:11:43.508Z,99
2023-02-24T15:12:57.798Z,99
2023-02-24T15:14:09.461Z,99
2023-02-24T15:15:22.603Z,99
2023-02-24T15:16:35.680Z,99
2023-02-24T15:17:48.578Z,99
2023-02-24T15:19:02.622Z,99
2023-02-24T15:20:14.551Z,99
2023-02-24T15:21:27.621Z,99
2023-02-24T15:22:40.583Z,99
2023-02-24T15:23:53.580Z,99
2023-02-24T15:25:06.590Z,99
2023-02-24T15:26:19.815Z,99
2023-02-24T15:27:32.590Z,99
2023-02-24T15:28:45.602Z,99
2023-02-24T15:29:58.596Z,99
2023-02-24T15:31:12.971Z,99
2023-02-24T15:32:24.675Z,99
2023-02-24T15:33:37.605Z,99
2023-02-24T15:34:50.581Z,99
2023-02-24T15:36:03.593Z,99
2023-02-24T15:37:16.593Z,99
2023-02-24T15:38:29.602Z,99
2023-02-24T15:39:42.604Z,99
2023-02-24T15:40:55.618Z,99
2023-02-24T15:42:08.603Z,99
2023-02-24T15:43:21.583Z,99
2023-02-24T15:44:34.619Z,99
2023-02-24T15:45:47.618Z,99
2023-02-24T15:47:00.687Z,99
2023-02-24T15:48:13.595Z,99
2023-02-24T15:49:26.627Z,99
2023-02-24T15:50:39.615Z,99
2023-02-24T15:51:52.597Z,99
2023-02-24T15:53:05.604Z,99
2023-02-24T15:54:18.594Z,99
2023-02-24T15:55:31.609Z,99
2023-02-24T15:56:44.635Z,99
2023-02-24T15:57:57.654Z,99
2023-02-24T15:59:10.662Z,99
2023-02-24T16:00:23.606Z,99
2023-02-24T16:01:36.631Z,99
2023-02-24T16:02:49.692Z,99
2023-02-24T16:04:02.718Z,99
2023-02-24T16:05:15.646Z,99
2023-02-24T16:06:28.644Z,99
2023-02-24T16:07:41.650Z,99
2023-02-24T16:08:54.614Z,99
2023-02-24T16:10:07.653Z,99
2023-02-24T16:11:20.621Z,99
2023-02-24T16:12:33.645Z,99
2023-02-24T16:13:46.657Z,99
2023-02-24T16:14:59.646Z,99
2023-02-24T16:16:12.725Z,99
2023-02-24T16:17:25.648Z,99
2023-02-24T16:18:38.609Z,99
2023-02-24T16:19:51.631Z,99
2023-02-24T16:21:04.692Z,99
2023-02-24T16:22:17.651Z,99
2023-02-24T16:23:30.812Z,99
2023-02-24T16:24:43.568Z,99
2023-02-24T16:25:56.514Z,99
2023-02-24T16:27:09.819Z,99
2023-02-24T16:28:22.644Z,99
2023-02-24T16:29:36.323Z,99
2023-02-24T16:30:48.867Z,99
2023-02-24T16:32:01.780Z,99
2023-02-24T16:33:14.970Z,99
2023-02-24T16:34:27.651Z,99
2023-02-24T16:35:40.509Z,99
2023-02-24T16:36:53.622Z,99
2023-02-24T16:38:06.694Z,99
2023-02-24T16:39:19.029Z,99
2023-02-24T16:40:32.653Z,99
2023-02-24T16:41:45.648Z,99
2023-02-24T16:42:59.002Z,99
2023-02-24T16:44:11.661Z,99
2023-02-24T16:45:24.939Z,99
2023-02-24T16:46:37.544Z,99
2023-02-24T16:47:50.615Z,99
2023-02-24T16:49:03.484Z,99
2023-02-24T16:50:16.516Z,99
2023-02-24T16:51:29.520Z,99
2023-02-24T16:52:42.647Z,99
2023-02-24T16:53:55.640Z,99
2023-02-24T16:55:08.783Z,99
2023-02-24T16:56:22.359Z,99
2023-02-24T16:57:34.986Z,99
2023-02-24T16:58:47.827Z,99
2023-02-24T17:00:00.730Z,99
2023-02-24T17:01:13.665Z,99
2023-02-24T17:02:26.664Z,99
2023-02-24T17:03:39.676Z,99
2023-02-24T17:04:52.658Z,99
2023-02-24T17:06:05.660Z,99
2023-02-24T17:07:18.635Z,99
2023-02-24T17:08:31.690Z,99
2023-02-24T17:09:44.568Z,99
2023-02-24T17:10:58.021Z,99
2023-02-24T17:12:10.692Z,99
2023-02-24T17:13:23.621Z,99
2023-02-24T17:14:36.370Z,99
2023-02-24T17:15:49.666Z,99
2023-02-24T17:17:03.083Z,99
2023-02-24T17:18:15.667Z,99
2023-02-24T17:19:28.555Z,99
2023-02-24T17:20:41.705Z,99
2023-02-24T17:21:54.647Z,99
2023-02-24T17:23:08.044Z,99
2023-02-24T17:24:20.693Z,99
2023-02-24T17:25:34.268Z,99
2023-02-24T17:26:46.872Z,99
2023-02-24T17:27:59.527Z,99
2023-02-24T17:29:12.850Z,99
2023-02-24T17:30:25.669Z,99
2023-02-24T17:31:38.985Z,99
2023-02-24T17:32:51.709Z,99
2023-02-24T17:34:07.667Z,99
2023-02-24T17:35:17.683Z,99
2023-02-24T17:36:31.041Z,99
2023-02-24T17:37:43.687Z,99
2023-02-24T17:38:56.677Z,99
2023-02-24T17:40:09.866Z,99
2023-02-24T17:41:23.301Z,99
2023-02-24T17:42:35.858Z,99
2023-02-24T17:43:48.659Z,99
2023-02-24T17:45:01.688Z,99
2023-02-24T17:46:14.727Z,99
2023-02-24T17:47:27.699Z,99
2023-02-24T17:48:40.680Z,99
2023-02-24T17:49:53.434Z,99
2023-02-24T17:51:06.849Z,99
2023-02-24T17:52:20.035Z,99
2023-02-24T17:53:32.843Z,99
2023-02-24T17:54:45.693Z,99
2023-02-24T17:56:02.773Z,99
2023-02-24T17:57:11.872Z,99
2023-02-24T17:58:24.684Z,99
2023-02-24T17:59:37.611Z,99
2023-02-24T18:00:50.678Z,99
2023-02-24T18:02:04.022Z,99
2023-02-24T18:03:16.780Z,99
2023-02-24T18:04:29.708Z,99
2023-02-24T18:05:42.747Z,99
2023-02-24T18:06:55.687Z,99
2023-02-24T18:08:08.695Z,99
2023-02-24T18:09:21.787Z,99
2023-02-24T18:10:34.706Z,99
2023-02-24T18:11:47.697Z,99
2023-02-24T18:13:00.706Z,99
2023-02-24T18:14:13.723Z,99
2023-02-24T18:15:26.698Z,99
2023-02-24T18:16:39.411Z,99
2023-02-24T18:17:52.680Z,99
2023-02-24T18:19:05.709Z,99
2023-02-24T18:20:18.405Z,99
2023-02-24T18:21:31.722Z,99
2023-02-24T18:22:44.591Z,99
2023-02-24T18:23:57.700Z,99
2023-02-24T18:25:10.595Z,99
2023-02-24T18:26:24.834Z,99
2023-02-24T18:27:36.862Z,99
2023-02-24T18:28:49.712Z,99
2023-02-24T18:30:02.794Z,99
2023-02-24T18:31:15.660Z,99
2023-02-24T18:32:28.866Z,99
2023-02-24T18:33:41.793Z,99
2023-02-24T18:34:54.677Z,99
2023-02-24T18:36:07.728Z,99
2023-02-24T18:37:20.770Z,99
2023-02-24T18:38:33.889Z,99
2023-02-24T18:39:46.717Z,99
2023-02-24T18:40:59.712Z,99
2023-02-24T18:42:12.815Z,99
2023-02-24T18:43:25.752Z,99
2023-02-24T18:44:38.710Z,99
2023-02-24T18:45:51.741Z,99
2023-02-24T18:47:04.796Z,99
2023-02-24T18:48:17.725Z,99
2023-02-24T18:49:30.739Z,99
2023-02-24T18:50:43.718Z,99
2023-02-24T18:51:56.722Z,99
2023-02-24T18:53:09.732Z,99
2023-02-24T18:54:22.774Z,99
2023-02-24T18:55:35.755Z,99
2023-02-24T18:56:48.996Z,99
2023-02-24T18:58:01.727Z,99
2023-02-24T18:59:14.748Z,99
2023-02-24T19:00:27.741Z,99
2023-02-24T19:01:40.808Z,99
2023-02-24T19:02:53.811Z,99
2023-02-24T19:04:06.747Z,99
2023-02-24T19:05:19.739Z,99
2023-02-24T19:06:32.290Z,99
2023-02-24T19:07:45.739Z,99
2023-02-24T19:08:58.705Z,99
2023-02-24T19:10:11.786Z,99
2023-02-24T19:11:24.721Z,99
2023-02-24T19:12:37.822Z,99
2023-02-24T19:13:51.077Z,99
2023-02-24T19:15:03.712Z,99
2023-02-24T19:16:16.893Z,99
2023-02-24T19:17:29.742Z,99
2023-02-24T19:18:42.759Z,99
2023-02-24T19:19:55.767Z,99
2023-02-24T19:21:08.731Z,99
2023-02-24T19:22:21.742Z,99
2023-02-24T19:23:34.845Z,99
2023-02-24T19:24:47.768Z,99
2023-02-24T19:26:00.744Z,99
2023-02-24T19:27:13.743Z,99
2023-02-24T19:28:26.776Z,99
2023-02-24T19:29:39.784Z,99
2023-02-24T19:30:52.776Z,99
2023-02-24T19:32:05.973Z,99
2023-02-24T19:33:18.729Z,99
2023-02-24T19:34:32.099Z,99
2023-02-24T19:35:44.751Z,99
2023-02-24T19:36:57.763Z,99
2023-02-24T19:38:10.756Z,99
2023-02-24T19:39:23.780Z,99
2023-02-24T19:40:36.734Z,99
2023-02-24T19:41:50.766Z,99
2023-02-24T19:43:02.750Z,99
2023-02-24T19:44:15.757Z,99
2023-02-24T19:45:28.485Z,99
2023-02-24T19:46:41.761Z,99
2023-02-24T19:47:54.741Z,99
2023-02-24T19:49:07.768Z,99
2023-02-24T19:50:20.799Z,99
2023-02-24T19:51:33.761Z,99
2023-02-24T19:52:46.766Z,99
2023-02-24T19:53:59.754Z,99
2023-02-24T19:55:12.763Z,99
2023-02-24T19:56:25.854Z,99
2023-02-24T19:57:38.731Z,99
2023-02-24T19:58:51.763Z,99
2023-02-24T20:00:05.055Z,99
2023-02-24T20:01:17.793Z,99
2023-02-24T20:02:30.792Z,99
2023-02-24T20:03:43.825Z,99
2023-02-24T20:04:56.788Z,99
2023-02-24T20:06:09.774Z,99
2023-02-24T20:07:22.877Z,99
2023-02-24T20:08:35.931Z,99
2023-02-24T20:09:48.548Z,99
2023-02-24T20:14:40.748Z,99
2023-02-24T20:15:53.782Z,99
2023-02-24T20:17:07.057Z,99
2023-02-24T20:18:19.802Z,99
2023-02-24T20:19:32.783Z,99
2023-02-24T20:20:45.506Z,99
2023-02-24T20:21:58.620Z,99
2023-02-24T20:23:11.813Z,99
2023-02-24T20:24:24.511Z,99
2023-02-24T20:25:37.794Z,99
2023-02-24T20:26:50.769Z,99
2023-02-24T20:28:03.771Z,99
2023-02-24T20:29:16.794Z,99
2023-02-24T20:30:29.802Z,99
2023-02-24T20:31:43.050Z,99
2023-02-24T20:32:55.985Z,99
2023-02-24T20:34:08.806Z,99
2023-02-24T20:35:22.078Z,99
2023-02-24T20:36:35.145Z,99
2023-02-24T20:37:47.784Z,99
2023-02-24T20:39:00.671Z,99
2023-02-24T20:40:13.794Z,99
2023-02-24T20:41:26.687Z,99
2023-02-24T20:42:39.802Z,99
2023-02-24T20:43:52.827Z,99
2023-02-24T20:45:05.841Z,99
2023-02-24T20:46:18.881Z,99
2023-02-24T20:47:32.016Z,99
2023-02-24T20:48:44.794Z,99
2023-02-24T20:49:57.809Z,99
2023-02-24T20:51:11.174Z,99
2023-02-24T20:52:23.792Z,99
2023-02-24T20:53:54.505Z,99
2023-02-24T20:54:49.802Z,99
2023-02-24T20:56:03.143Z,99
2023-02-24T20:57:15.846Z,99
2023-02-24T20:58:28.788Z,99
2023-02-24T20:59:43.961Z,99
2023-02-24T21:00:54.814Z,99
2023-02-24T21:02:07.698Z,99
2023-02-24T21:03:21.158Z,99
2023-02-24T21:04:33.811Z,99
2023-02-24T21:05:46.810Z,99
2023-02-24T21:06:59.511Z,99
2023-02-24T21:08:12.831Z,99
2023-02-24T21:09:25.896Z,99
2023-02-24T21:10:38.809Z,99
2023-02-24T21:11:51.695Z,99
2023-02-24T21:13:04.818Z,99
2023-02-24T21:14:17.846Z,99
2023-02-24T21:15:31.016Z,99
2023-02-24T21:16:43.962Z,99
2023-02-24T21:17:56.513Z,99
2023-02-24T21:19:09.512Z,99
2023-02-24T21:20:22.983Z,99
2023-02-24T21:21:35.902Z,99
2023-02-24T21:22:48.714Z,99
2023-02-24T21:24:01.839Z,99
2023-02-24T21:25:14.877Z,99
2023-02-24T21:26:27.876Z,99
2023-02-24T21:27:40.862Z,99
2023-02-24T21:28:57.236Z,99
2023-02-24T21:30:06.688Z,99
2023-02-24T21:31:19.955Z,99
2023-02-24T21:32:32.974Z,99
2023-02-24T21:33:45.616Z,99
2023-02-24T21:34:59.037Z,99
2023-02-24T21:36:11.866Z,99
2023-02-24T21:37:24.868Z,99
2023-02-24T21:38:37.917Z,99
2023-02-24T21:39:50.887Z,99
2023-02-24T21:41:03.857Z,99
2023-02-24T21:42:16.860Z,99
2023-02-24T21:43:29.864Z,99
2023-02-24T21:44:45.720Z,99
2023-02-24T21:45:55.853Z,99
2023-02-24T21:47:09.033Z,99
2023-02-24T21:48:21.878Z,99
2023-02-24T21:49:34.713Z,99
2023-02-24T21:50:47.189Z,99
2023-02-24T21:52:00.866Z,99
2023-02-24T21:53:13.871Z,99
2023-02-24T21:54:26.844Z,99
2023-02-24T21:55:39.870Z,99
2023-02-24T21:56:52.865Z,99
2023-02-24T21:58:05.878Z,99
2023-02-24T21:59:18.866Z,99
2023-02-24T22:00:31.874Z,99
2023-02-24T22:01:45.166Z,99
2023-02-24T22:02:57.762Z,99
2023-02-24T22:04:10.912Z,99
2023-02-24T22:05:23.932Z,99
2023-02-24T22:06:37.260Z,99
2023-02-24T22:07:50.898Z,99
2023-02-24T22:09:02.871Z,99
2023-02-24T22:10:16.699Z,99
2023-02-24T22:11:28.890Z,99
2023-02-24T22:12:41.866Z,99
2023-02-24T22:13:54.830Z,99
2023-02-24T22:15:07.865Z,99
2023-02-24T22:16:21.129Z,99
2023-02-24T22:17:33.793Z,99
2023-02-24T22:18:46.742Z,99
2023-02-24T22:19:59.869Z,99
2023-02-24T22:21:12.878Z,99
2023-02-24T22:22:25.728Z,99
2023-02-24T22:23:38.860Z,99
2023-02-24T22:24:51.836Z,99
2023-02-24T22:26:04.845Z,99
2023-02-24T22:27:17.883Z,99
2023-02-24T22:28:30.872Z,99
2023-02-24T22:29:43.890Z,99
2023-02-24T22:30:56.908Z,99
2023-02-24T22:32:09.969Z,99
2023-02-24T22:33:22.878Z,99
2023-02-24T22:34:35.841Z,99
2023-02-24T22:35:48.865Z,99
2023-02-24T22:37:01.903Z,99
2023-02-24T22:38:14.873Z,99
2023-02-24T22:39:27.864Z,99
2023-02-24T22:40:40.880Z,99
2023-02-24T22:41:53.839Z,99
2023-02-24T22:43:06.872Z,99
2023-02-24T22:44:19.897Z,99
2023-02-24T22:45:33.047Z,99
2023-02-24T22:46:45.826Z,99
2023-02-24T22:47:58.891Z,99
2023-02-24T22:49:11.958Z,99
2023-02-24T22:50:24.877Z,99
2023-02-24T22:51:37.897Z,99
2023-02-24T22:52:50.896Z,99
2023-02-24T22:54:03.900Z,99
2023-02-24T22:55:16.957Z,99
2023-02-24T22:56:29.925Z,99
2023-02-24T22:57:42.908Z,99
2023-02-24T22:58:55.860Z,99
2023-02-24T23:00:09.653Z,99
2023-02-24T23:01:21.962Z,99
2023-02-24T23:02:34.961Z,99
2023-02-24T23:03:47.959Z,99
2023-02-24T23:05:00.883Z,99
2023-02-24T23:06:13.897Z,99
2023-02-24T23:07:26.891Z,99
2023-02-24T23:08:39.888Z,99
2023-02-24T23:09:53.169Z,99
2023-02-24T23:11:05.910Z,99
2023-02-24T23:12:19.044Z,99
2023-02-24T23:13:31.948Z,99
2023-02-24T23:14:44.922Z,99
2023-02-24T23:15:58.456Z,99
2023-02-24T23:17:11.072Z,99
2023-02-24T23:18:23.895Z,99
2023-02-24T23:19:36.934Z,99
2023-02-24T23:20:49.932Z,99
2023-02-24T23:22:02.902Z,99
2023-02-24T23:23:16.074Z,99
2023-02-24T23:24:28.906Z,99
2023-02-24T23:25:41.945Z,99
2023-02-24T23:26:54.874Z,99
2023-02-24T23:28:07.914Z,99
2023-02-24T23:29:20.905Z,99
2023-02-24T23:30:34.066Z,99
2023-02-24T23:31:46.997Z,99
2023-02-24T23:32:59.903Z,99
2023-02-24T23:34:12.919Z,99
2023-02-24T23:35:25.911Z,99
2023-02-24T23:36:38.965Z,99
2023-02-24T23:37:51.883Z,99
2023-02-24T23:39:04.942Z,99
2023-02-24T23:40:17.790Z,99
2023-02-24T23:41:30.935Z,99
2023-02-24T23:42:43.930Z,99
2023-02-24T23:43:56.950Z,99
2023-02-24T23:45:09.966Z,99
2023-02-24T23:46:23.168Z,99
2023-02-24T23:47:35.950Z,99
2023-02-24T23:48:48.924Z,99
2023-02-24T23:50:01.988Z,99
2023-02-24T23:51:14.939Z,99
2023-02-24T23:52:27.934Z,99
2023-02-24T23:53:41.112Z,99
2023-02-24T23:54:53.965Z,99
2023-02-24T23:56:07.002Z,99
2023-02-24T23:57:19.929Z,99
2023-02-24T23:58:32.941Z,99
2023-02-24T23:59:45.943Z,99
